Time;durP1;ratioP1;P1;durP2;ratioP2;P2;SDS_P1;SDS_P2;PMS_P1;PMS_P2;Temp;Humidity;BMP_temperature;BMP_pressure;BME280_temperature;BME280_humidity;BME280_pressure;Samples;Min_cycle;Max_cycle;Signal;HPM_P1;HPM_P2
2022/03/31 00:01:31;;;;;;;2.25;2.15;;;;;;;;;;5001083;28;93354;-74
2022/03/31 00:03:57;;;;;;;2.40;2.30;;;;;;;;;;4998317;28;93202;-74
2022/03/31 00:06:24;;;;;;;2.70;2.50;;;;;;;;;;4998161;28;93703;-74
2022/03/31 00:08:50;;;;;;;2.05;1.95;;;;;;;;;;4995202;28;91604;-73
2022/03/31 00:11:18;;;;;;;2.13;1.92;;;;;;;;;;4996989;28;95820;-74
2022/03/31 00:13:45;;;;;;;2.33;2.13;;;;;;;;;;4997426;28;93320;-74
2022/03/31 00:16:12;;;;;;;2.90;1.83;;;;;;;;;;4996859;28;94692;-73
2022/03/31 00:18:39;;;;;;;2.90;2.47;;;;;;;;;;4997888;28;94699;-75
2022/03/31 00:24:29;;;;;;;2.00;1.90;;;;;;;;;;4998551;28;92382;-75
2022/03/31 00:26:55;;;;;;;2.75;2.58;;;;;;;;;;4998025;28;93606;-74
2022/03/31 00:29:22;;;;;;;2.17;2.08;;;;;;;;;;4996900;28;92349;-75
2022/03/31 00:31:48;;;;;;;2.53;2.33;;;;;;;;;;4997943;28;93353;-74
2022/03/31 00:34:15;;;;;;;2.08;1.95;;;;;;;;;;4997808;28;91891;-75
2022/03/31 00:36:50;;;;;;;2.47;2.38;;;;;;;;;;4996981;28;92309;-75
2022/03/31 00:39:29;;;;;;;2.30;2.10;;;;;;;;;;4998154;28;92775;-76
2022/03/31 00:41:58;;;;;;;2.15;2.05;;;;;;;;;;4994632;28;96144;-75
2022/03/31 00:44:25;;;;;;;3.10;2.00;;;;;;;;;;4997743;28;92994;-76
2022/03/31 00:46:53;;;;;;;2.33;2.22;;;;;;;;;;5000224;28;94564;-74
2022/03/31 00:49:20;;;;;;;2.30;2.20;;;;;;;;;;4997858;28;92182;-76
2022/03/31 00:51:47;;;;;;;2.30;2.10;;;;;;;;;;4997658;28;93276;-77
2022/03/31 00:54:15;;;;;;;2.17;2.08;;;;;;;;;;4997335;28;93898;-76
2022/03/31 00:56:42;;;;;;;2.50;1.92;;;;;;;;;;4997445;28;92328;-76
2022/03/31 00:59:10;;;;;;;2.28;2.17;;;;;;;;;;4997276;28;93194;-76
2022/03/31 01:01:38;;;;;;;1.80;1.70;;;;;;;;;;4996839;28;93312;-76
2022/03/31 01:04:05;;;;;;;2.55;1.73;;;;;;;;;;4997514;28;92236;-75
2022/03/31 01:06:32;;;;;;;2.05;1.88;;;;;;;;;;4995887;28;94745;-76
2022/03/31 01:08:59;;;;;;;1.80;1.70;;;;;;;;;;5000477;28;94151;-75
2022/03/31 01:11:29;;;;;;;2.20;2.03;;;;;;;;;;4997364;28;92732;-74
2022/03/31 01:13:56;;;;;;;1.88;1.77;;;;;;;;;;4996588;28;93285;-75
2022/03/31 01:16:22;;;;;;;3.17;1.90;;;;;;;;;;4995988;28;92358;-75
2022/03/31 01:18:51;;;;;;;1.85;1.75;;;;;;;;;;4995918;28;93645;-75
2022/03/31 01:21:17;;;;;;;1.80;1.70;;;;;;;;;;4997017;28;93006;-75
2022/03/31 01:23:45;;;;;;;2.20;2.00;;;;;;;;;;4997193;28;91396;-75
2022/03/31 01:26:12;;;;;;;1.92;1.83;;;;;;;;;;4997081;28;93146;-74
2022/03/31 01:28:39;;;;;;;1.77;1.67;;;;;;;;;;5002167;28;93562;-74
2022/03/31 01:31:06;;;;;;;1.50;1.40;;;;;;;;;;4996150;28;94646;-74
2022/03/31 01:33:33;;;;;;;3.13;1.73;;;;;;;;;;4996798;28;93429;-73
2022/03/31 01:36:01;;;;;;;1.70;1.60;;;;;;;;;;4997202;28;92189;-73
2022/03/31 01:38:27;;;;;;;1.75;1.65;;;;;;;;;;4996904;28;92238;-75
2022/03/31 01:40:54;;;;;;;2.10;2.00;;;;;;;;;;4997120;28;93538;-75
2022/03/31 01:43:21;;;;;;;2.10;2.00;;;;;;;;;;4997173;28;92254;-75
2022/03/31 01:45:49;;;;;;;2.20;2.00;;;;;;;;;;4996607;28;93508;-75
2022/03/31 01:48:16;;;;;;;2.00;1.90;;;;;;;;;;4997057;28;94351;-75
2022/03/31 01:50:43;;;;;;;2.17;2.00;;;;;;;;;;4999803;28;92429;-76
2022/03/31 01:53:15;;;;;;;1.58;1.48;;;;;;;;;;4997216;28;93504;-76
2022/03/31 01:55:41;;;;;;;1.67;1.58;;;;;;;;;;4998412;28;94723;-75
2022/03/31 01:58:08;;;;;;;1.88;1.77;;;;;;;;;;5000146;28;95465;-74
2022/03/31 02:00:35;;;;;;;1.60;1.50;;;;;;;;;;5000093;28;93051;-75
2022/03/31 02:03:02;;;;;;;1.90;1.80;;;;;;;;;;5000117;28;92388;-74
2022/03/31 02:05:28;;;;;;;1.73;1.63;;;;;;;;;;4999621;28;93185;-75
2022/03/31 02:07:55;;;;;;;1.83;1.70;;;;;;;;;;5000018;28;94078;-74
2022/03/31 02:10:25;;;;;;;1.48;1.48;;;;;;;;;;5000304;28;92220;-75
2022/03/31 02:12:52;;;;;;;1.92;1.83;;;;;;;;;;5003478;28;93305;-75
2022/03/31 02:15:21;;;;;;;1.95;1.77;;;;;;;;;;4999658;28;92440;-75
2022/03/31 02:17:48;;;;;;;1.80;1.70;;;;;;;;;;4998322;28;95028;-75
2022/03/31 02:20:15;;;;;;;2.08;1.70;;;;;;;;;;4998015;28;96171;-74
2022/03/31 02:22:42;;;;;;;1.80;1.70;;;;;;;;;;4999647;28;92272;-74
2022/03/31 02:25:09;;;;;;;2.20;2.10;;;;;;;;;;4999928;28;93297;-75
2022/03/31 02:27:36;;;;;;;5.20;1.77;;;;;;;;;;4999556;28;93474;-74
2022/03/31 02:30:03;;;;;;;2.13;1.90;;;;;;;;;;4999594;28;92307;-75
2022/03/31 02:32:30;;;;;;;2.10;2.00;;;;;;;;;;4998964;28;93349;-75
2022/03/31 02:34:57;;;;;;;2.47;1.80;;;;;;;;;;5002219;28;93502;-74
2022/03/31 02:37:23;;;;;;;2.00;1.90;;;;;;;;;;5000027;28;93595;-75
2022/03/31 02:39:49;;;;;;;2.97;2.00;;;;;;;;;;4999406;28;93659;-74
2022/03/31 02:42:16;;;;;;;2.20;2.00;;;;;;;;;;4999069;28;92314;-74
2022/03/31 02:44:43;;;;;;;2.30;2.20;;;;;;;;;;4998105;28;94583;-74
2022/03/31 02:47:09;;;;;;;2.97;1.90;;;;;;;;;;4998105;28;93759;-74
2022/03/31 02:49:36;;;;;;;2.17;1.98;;;;;;;;;;4998379;28;92331;-74
2022/03/31 02:52:03;;;;;;;2.30;2.10;;;;;;;;;;4997657;28;93528;-75
2022/03/31 02:57:16;;;;;;;2.20;1.98;;;;;;;;;;5002524;28;92235;-74
2022/03/31 02:59:42;;;;;;;2.20;2.10;;;;;;;;;;4998874;28;93205;-75
2022/03/31 03:02:08;;;;;;;3.20;2.40;;;;;;;;;;4998896;28;91619;-76
2022/03/31 03:04:35;;;;;;;2.25;2.05;;;;;;;;;;4998932;28;92193;-78
2022/03/31 03:07:01;;;;;;;2.90;2.40;;;;;;;;;;4998948;28;93149;-78
2022/03/31 03:09:31;;;;;;;2.22;2.13;;;;;;;;;;4997687;28;94613;-82
2022/03/31 03:12:44;;;;;;;;;;;;;;;;;;;;;
2022/03/31 03:20:40;;;;;;;;;;;;;;;;;;;;;
2022/03/31 03:23:31;;;;;;;2.07;1.80;;;;;;;;;;4898411;28;95397;-78
2022/03/31 03:25:58;;;;;;;2.90;2.40;;;;;;;;;;4899361;28;92437;-77
2022/03/31 03:28:25;;;;;;;2.65;2.13;;;;;;;;;;4899441;28;92718;-76
2022/03/31 03:30:52;;;;;;;2.78;2.20;;;;;;;;;;4899449;28;92812;-75
2022/03/31 03:33:19;;;;;;;2.55;2.35;;;;;;;;;;4898883;28;93441;-76
2022/03/31 03:35:45;;;;;;;2.70;2.50;;;;;;;;;;4899237;28;93181;-76
2022/03/31 03:38:14;;;;;;;2.80;2.60;;;;;;;;;;4897535;28;96007;-74
2022/03/31 03:40:41;;;;;;;2.67;2.47;;;;;;;;;;4899350;28;92515;-75
2022/03/31 03:43:09;;;;;;;2.45;2.35;;;;;;;;;;4901750;28;92711;-75
2022/03/31 03:45:36;;;;;;;3.30;2.67;;;;;;;;;;4898338;28;92391;-75
2022/03/31 03:48:03;;;;;;;4.43;2.40;;;;;;;;;;4907588;28;92782;-75
2022/03/31 03:50:31;;;;;;;2.83;2.33;;;;;;;;;;4917993;28;94568;-75
2022/03/31 03:52:57;;;;;;;2.58;2.38;;;;;;;;;;4961570;28;93643;-74
2022/03/31 03:55:23;;;;;;;2.78;2.58;;;;;;;;;;4998809;28;93570;-74
2022/03/31 03:57:50;;;;;;;2.88;2.67;;;;;;;;;;4997465;28;93591;-75
2022/03/31 04:00:18;;;;;;;4.18;2.92;;;;;;;;;;4998157;28;92370;-74
2022/03/31 04:02:44;;;;;;;4.15;2.97;;;;;;;;;;4996652;28;94879;-74
2022/03/31 04:05:11;;;;;;;3.08;2.80;;;;;;;;;;5001052;28;93333;-74
2022/03/31 04:07:37;;;;;;;3.72;2.92;;;;;;;;;;4997947;28;95336;-73
2022/03/31 04:10:04;;;;;;;4.00;3.00;;;;;;;;;;4997792;28;93656;-73
2022/03/31 04:12:30;;;;;;;3.42;3.13;;;;;;;;;;4996511;28;92318;-75
2022/03/31 04:14:57;;;;;;;3.17;2.97;;;;;;;;;;4997894;28;92468;-74
2022/03/31 04:17:23;;;;;;;3.40;3.10;;;;;;;;;;4997524;28;93134;-75
2022/03/31 04:19:50;;;;;;;3.80;3.13;;;;;;;;;;4998138;28;91628;-75
2022/03/31 04:22:16;;;;;;;3.00;2.67;;;;;;;;;;4998019;28;92443;-75
2022/03/31 04:24:42;;;;;;;3.65;3.30;;;;;;;;;;4997375;28;92993;-75
2022/03/31 04:27:09;;;;;;;3.28;3.05;;;;;;;;;;4999023;28;94631;-74
2022/03/31 04:29:35;;;;;;;2.75;2.55;;;;;;;;;;4996744;28;93140;-76
2022/03/31 04:32:01;;;;;;;2.97;2.70;;;;;;;;;;4997867;28;92353;-75
2022/03/31 04:34:28;;;;;;;3.08;2.70;;;;;;;;;;4997592;28;93065;-75
2022/03/31 04:36:54;;;;;;;2.97;2.70;;;;;;;;;;4997334;28;93977;-76
2022/03/31 04:39:20;;;;;;;3.08;2.72;;;;;;;;;;4997435;28;93820;-75
2022/03/31 04:41:47;;;;;;;4.03;2.50;;;;;;;;;;4996961;28;93829;-75
2022/03/31 04:44:14;;;;;;;8.85;3.10;;;;;;;;;;4997853;28;92782;-76
2022/03/31 04:46:40;;;;;;;4.55;2.47;;;;;;;;;;4997201;28;92693;-76
2022/03/31 04:49:07;;;;;;;3.78;2.80;;;;;;;;;;5000433;28;92527;-74
2022/03/31 04:51:33;;;;;;;4.95;3.08;;;;;;;;;;4995900;28;94796;-74
2022/03/31 04:54:00;;;;;;;4.10;2.83;;;;;;;;;;4997349;28;95702;-75
2022/03/31 04:56:27;;;;;;;2.92;2.72;;;;;;;;;;4996973;28;93629;-75
2022/03/31 04:58:53;;;;;;;5.95;2.70;;;;;;;;;;4997313;28;92271;-75
2022/03/31 05:01:22;;;;;;;3.63;3.30;;;;;;;;;;4997026;28;94871;-73
2022/03/31 05:03:49;;;;;;;6.13;2.90;;;;;;;;;;4996906;28;93462;-75
2022/03/31 05:06:16;;;;;;;3.33;3.03;;;;;;;;;;4996847;28;92296;-74
2022/03/31 05:08:42;;;;;;;3.90;3.30;;;;;;;;;;4997627;28;93494;-73
2022/03/31 05:11:08;;;;;;;3.70;3.40;;;;;;;;;;4999857;28;93820;-73
2022/03/31 05:13:35;;;;;;;4.90;3.47;;;;;;;;;;4997263;28;93207;-73
2022/03/31 05:16:02;;;;;;;3.78;2.95;;;;;;;;;;4995190;28;95397;-73
2022/03/31 05:18:28;;;;;;;3.97;3.42;;;;;;;;;;4997159;28;92240;-73
2022/03/31 05:20:55;;;;;;;4.57;2.80;;;;;;;;;;4997074;28;93298;-73
2022/03/31 05:23:27;;;;;;;3.78;3.47;;;;;;;;;;4996355;28;93497;-73
2022/03/31 05:25:53;;;;;;;4.70;3.13;;;;;;;;;;4996984;28;92256;-73
2022/03/31 05:28:19;;;;;;;4.03;3.28;;;;;;;;;;4997760;28;94300;-72
2022/03/31 05:30:46;;;;;;;5.32;2.90;;;;;;;;;;5000441;28;93686;-73
2022/03/31 05:33:12;;;;;;;7.00;3.50;;;;;;;;;;5003767;28;91576;-74
2022/03/31 05:35:39;;;;;;;6.30;3.05;;;;;;;;;;5000426;28;93781;-73
2022/03/31 05:38:06;;;;;;;3.40;3.08;;;;;;;;;;5001653;28;92273;-72
2022/03/31 05:40:34;;;;;;;4.57;2.95;;;;;;;;;;5000987;28;94541;-73
2022/03/31 05:43:00;;;;;;;3.90;3.28;;;;;;;;;;5002789;28;93759;-73
2022/03/31 05:45:26;;;;;;;3.75;3.20;;;;;;;;;;5003769;28;92366;-74
2022/03/31 05:47:54;;;;;;;4.45;3.40;;;;;;;;;;5001465;28;93967;-74
2022/03/31 05:50:20;;;;;;;5.85;3.60;;;;;;;;;;5001077;28;93991;-74
2022/03/31 05:52:47;;;;;;;3.70;2.88;;;;;;;;;;5004760;28;93412;-73
2022/03/31 05:55:14;;;;;;;4.72;3.40;;;;;;;;;;5000595;28;93211;-73
2022/03/31 05:57:41;;;;;;;4.30;3.10;;;;;;;;;;5000876;28;91433;-74
2022/03/31 06:00:09;;;;;;;5.93;3.80;;;;;;;;;;4999091;28;94336;-75
2022/03/31 06:02:39;;;;;;;3.65;3.30;;;;;;;;;;4999112;28;94452;-74
2022/03/31 06:05:15;;;;;;;7.07;3.72;;;;;;;;;;4998145;28;94654;-75
2022/03/31 06:07:42;;;;;;;6.35;3.47;;;;;;;;;;5000132;28;96042;-76
2022/03/31 06:10:10;;;;;;;14.00;3.45;;;;;;;;;;4999616;28;94071;-76
2022/03/31 06:12:37;;;;;;;5.30;3.50;;;;;;;;;;4999693;28;92245;-75
2022/03/31 06:15:06;;;;;;;7.43;3.80;;;;;;;;;;5002763;28;92650;-76
2022/03/31 06:17:33;;;;;;;6.05;3.55;;;;;;;;;;4998165;28;92298;-76
2022/03/31 06:20:00;;;;;;;4.00;3.35;;;;;;;;;;4999674;28;93579;-75
2022/03/31 06:22:26;;;;;;;5.03;2.80;;;;;;;;;;5000219;28;91612;-76
2022/03/31 06:24:53;;;;;;;4.65;3.45;;;;;;;;;;4999702;28;92362;-75
2022/03/31 06:27:19;;;;;;;4.00;3.22;;;;;;;;;;4999654;28;93308;-76
2022/03/31 06:29:45;;;;;;;4.90;3.38;;;;;;;;;;4997615;28;95926;-74
2022/03/31 06:32:13;;;;;;;5.28;3.33;;;;;;;;;;4998651;28;93306;-77
2022/03/31 06:34:40;;;;;;;3.47;3.17;;;;;;;;;;4999291;28;93954;-74
2022/03/31 06:37:09;;;;;;;4.63;3.22;;;;;;;;;;5002512;28;93216;-75
2022/03/31 06:39:40;;;;;;;8.77;3.22;;;;;;;;;;4999535;28;93303;-75
2022/03/31 06:42:07;;;;;;;10.07;6.28;;;;;;;;;;4999149;28;93426;-74
2022/03/31 06:44:33;;;;;;;7.57;3.72;;;;;;;;;;4998413;28;92335;-73
2022/03/31 06:47:00;;;;;;;7.47;3.50;;;;;;;;;;4998366;28;95339;-73
2022/03/31 06:49:26;;;;;;;6.60;3.85;;;;;;;;;;4999022;28;93698;-73
2022/03/31 06:51:52;;;;;;;8.00;3.53;;;;;;;;;;4999251;28;92333;-72
2022/03/31 06:54:19;;;;;;;6.75;3.80;;;;;;;;;;4997778;28;94693;-73
2022/03/31 06:56:47;;;;;;;7.30;3.42;;;;;;;;;;4998840;28;94032;-73
2022/03/31 06:59:13;;;;;;;6.00;3.60;;;;;;;;;;5002048;28;92312;-77
2022/03/31 07:01:40;;;;;;;5.10;4.28;;;;;;;;;;4998570;28;93523;-76
2022/03/31 07:04:07;;;;;;;6.15;3.63;;;;;;;;;;4996563;28;92265;-76
2022/03/31 07:06:34;;;;;;;9.75;3.55;;;;;;;;;;4997149;28;93168;-72
2022/03/31 07:09:00;;;;;;;8.70;3.90;;;;;;;;;;4996766;28;93784;-73
2022/03/31 07:11:26;;;;;;;10.63;3.80;;;;;;;;;;4997719;28;92454;-77
2022/03/31 07:13:53;;;;;;;7.43;4.38;;;;;;;;;;4996812;28;92320;-74
2022/03/31 07:16:19;;;;;;;6.60;3.67;;;;;;;;;;4996605;28;93983;-75
2022/03/31 07:18:47;;;;;;;6.03;3.50;;;;;;;;;;4995267;28;94798;-76
2022/03/31 07:21:14;;;;;;;6.72;3.65;;;;;;;;;;4982958;28;97084;-73
2022/03/31 07:23:40;;;;;;;7.60;3.50;;;;;;;;;;4996843;28;92352;-73
2022/03/31 07:26:07;;;;;;;4.88;3.67;;;;;;;;;;4997289;28;92676;-72
2022/03/31 07:28:33;;;;;;;8.85;3.80;;;;;;;;;;4979615;28;94399;-73
2022/03/31 07:31:00;;;;;;;6.38;4.00;;;;;;;;;;4996680;28;93297;-74
2022/03/31 07:33:26;;;;;;;6.03;3.72;;;;;;;;;;4996805;28;93785;-73
2022/03/31 07:35:52;;;;;;;8.48;4.13;;;;;;;;;;4997974;28;93951;-72
2022/03/31 07:38:19;;;;;;;5.20;4.18;;;;;;;;;;4998491;28;92180;-73
2022/03/31 07:40:46;;;;;;;7.25;4.25;;;;;;;;;;5000228;28;95862;-72
2022/03/31 07:43:12;;;;;;;5.38;4.00;;;;;;;;;;4996401;28;94712;-73
2022/03/31 07:45:39;;;;;;;10.50;4.07;;;;;;;;;;4998148;28;95715;-73
2022/03/31 07:48:06;;;;;;;6.10;4.28;;;;;;;;;;4998045;28;94621;-74
2022/03/31 07:50:34;;;;;;;5.40;4.35;;;;;;;;;;4997180;28;92671;-75
2022/03/31 07:53:01;;;;;;;6.63;4.28;;;;;;;;;;4997967;28;93753;-73
2022/03/31 07:55:27;;;;;;;8.60;4.68;;;;;;;;;;4998200;28;93180;-72
2022/03/31 07:57:54;;;;;;;15.82;4.40;;;;;;;;;;4996570;28;92309;-73
2022/03/31 08:00:20;;;;;;;5.60;4.47;;;;;;;;;;4998749;28;93393;-73
2022/03/31 08:02:48;;;;;;;6.32;4.18;;;;;;;;;;5001051;28;93578;-74
2022/03/31 08:05:19;;;;;;;5.93;4.20;;;;;;;;;;4996818;28;93390;-72
2022/03/31 08:07:46;;;;;;;6.80;4.33;;;;;;;;;;4991699;28;95745;-73
2022/03/31 08:10:12;;;;;;;7.65;4.60;;;;;;;;;;4996995;28;92829;-73
2022/03/31 08:12:42;;;;;;;8.35;4.47;;;;;;;;;;4997434;28;93595;-72
2022/03/31 08:15:09;;;;;;;6.13;4.25;;;;;;;;;;4997196;28;93750;-73
2022/03/31 08:17:36;;;;;;;4.95;4.45;;;;;;;;;;4996972;28;92419;-71
2022/03/31 08:20:03;;;;;;;6.00;4.90;;;;;;;;;;4997479;28;93393;-73
2022/03/31 08:22:29;;;;;;;4.95;4.45;;;;;;;;;;4997065;28;93686;-72
2022/03/31 08:24:59;;;;;;;5.03;4.70;;;;;;;;;;4999627;28;92568;-73
2022/03/31 08:27:26;;;;;;;5.88;4.53;;;;;;;;;;4991937;28;96845;-73
2022/03/31 08:29:53;;;;;;;5.05;4.65;;;;;;;;;;4993373;28;92299;-72
2022/03/31 08:32:20;;;;;;;6.68;4.75;;;;;;;;;;4995450;28;94800;-72
2022/03/31 08:34:47;;;;;;;5.63;5.07;;;;;;;;;;4996387;28;93512;-73
2022/03/31 08:37:14;;;;;;;6.00;5.40;;;;;;;;;;4997123;28;92244;-72
2022/03/31 08:39:40;;;;;;;5.80;5.30;;;;;;;;;;4996724;28;92861;-72
2022/03/31 08:42:07;;;;;;;7.70;5.53;;;;;;;;;;4993508;28;94852;-71
2022/03/31 08:44:34;;;;;;;7.65;5.47;;;;;;;;;;4996634;28;92894;-71
2022/03/31 08:47:01;;;;;;;6.75;5.53;;;;;;;;;;4999160;28;94243;-71
2022/03/31 08:49:29;;;;;;;5.88;5.38;;;;;;;;;;4997463;28;91586;-72
2022/03/31 08:52:03;;;;;;;6.13;5.53;;;;;;;;;;4996204;28;93053;-71
2022/03/31 08:54:29;;;;;;;5.90;5.40;;;;;;;;;;4991057;28;93098;-70
2022/03/31 08:56:56;;;;;;;7.80;5.78;;;;;;;;;;4991448;28;94732;-69
2022/03/31 08:59:43;;;;;;;6.78;6.18;;;;;;;;;;4995084;28;96835;-72
2022/03/31 09:02:20;;;;;;;7.18;6.47;;;;;;;;;;4996319;28;94757;-74
2022/03/31 09:04:47;;;;;;;11.05;6.20;;;;;;;;;;4995198;28;93108;-72
2022/03/31 09:07:13;;;;;;;12.45;7.03;;;;;;;;;;4996779;28;93399;-72
2022/03/31 09:09:46;;;;;;;11.85;6.85;;;;;;;;;;4999478;28;93612;-72
2022/03/31 09:12:13;;;;;;;7.65;6.82;;;;;;;;;;4991702;28;93033;-72
2022/03/31 09:14:50;;;;;;;8.45;7.45;;;;;;;;;;4991708;28;92615;-71
2022/03/31 09:17:17;;;;;;;8.00;7.07;;;;;;;;;;4995797;28;92287;-71
2022/03/31 09:19:44;;;;;;;9.52;7.63;;;;;;;;;;4996708;28;93473;-71
2022/03/31 09:22:11;;;;;;;9.20;7.47;;;;;;;;;;4994453;28;97395;-70
2022/03/31 09:24:37;;;;;;;11.30;7.43;;;;;;;;;;4990672;28;92517;-70
2022/03/31 09:27:04;;;;;;;9.45;8.20;;;;;;;;;;4996302;28;93222;-73
2022/03/31 09:29:31;;;;;;;8.35;7.55;;;;;;;;;;4995918;28;92378;-72
2022/03/31 09:32:13;;;;;;;8.68;7.78;;;;;;;;;;4999616;28;92324;-72
2022/03/31 09:34:41;;;;;;;9.35;8.45;;;;;;;;;;4991797;28;97044;-72
2022/03/31 09:37:07;;;;;;;9.65;8.50;;;;;;;;;;4996353;28;93375;-74
2022/03/31 09:39:35;;;;;;;11.70;8.85;;;;;;;;;;4996695;28;93366;-72
2022/03/31 09:42:09;;;;;;;12.20;9.27;;;;;;;;;;4995566;28;94062;-75
2022/03/31 09:44:36;;;;;;;11.70;9.00;;;;;;;;;;4992740;28;92422;-76
2022/03/31 09:47:02;;;;;;;13.30;9.27;;;;;;;;;;4993805;28;96303;-73
2022/03/31 09:49:29;;;;;;;12.25;9.40;;;;;;;;;;4995603;28;95225;-70
2022/03/31 09:52:00;;;;;;;11.23;9.60;;;;;;;;;;4999131;28;92869;-69
2022/03/31 09:54:29;;;;;;;11.77;9.30;;;;;;;;;;4995988;28;93743;-70
2022/03/31 09:56:56;;;;;;;15.10;10.65;;;;;;;;;;4996145;28;92239;-69
2022/03/31 09:59:28;;;;;;;12.48;10.20;;;;;;;;;;4995153;28;92769;-70
2022/03/31 10:01:55;;;;;;;12.02;8.95;;;;;;;;;;4995206;28;92838;-70
2022/03/31 10:04:22;;;;;;;10.27;8.77;;;;;;;;;;4996427;28;92351;-70
2022/03/31 10:06:54;;;;;;;12.85;9.00;;;;;;;;;;4996537;28;93296;-70
2022/03/31 10:09:21;;;;;;;10.38;8.48;;;;;;;;;;4998133;28;92605;-70
2022/03/31 10:11:50;;;;;;;10.23;8.70;;;;;;;;;;4994104;28;95600;-70
2022/03/31 10:14:19;;;;;;;8.45;7.65;;;;;;;;;;4994188;28;95965;-70
2022/03/31 10:16:50;;;;;;;8.00;7.28;;;;;;;;;;4998577;28;93438;-71
2022/03/31 10:19:36;;;;;;;8.82;7.78;;;;;;;;;;4999195;28;93903;-71
2022/03/31 10:25:02;;;;;;;;;;;;;;;;;;4997734;28;92906;-72
2022/03/31 10:27:30;;;;;;;6.85;6.25;;;;;;;;;;4998338;28;122094;-72
2022/03/31 10:30:15;;;;;;;7.40;6.72;;;;;;;;;;4998980;28;93662;-72
2022/03/31 10:32:53;;;;;;;7.53;6.72;;;;;;;;;;4999174;28;92552;-73
2022/03/31 10:35:21;;;;;;;18.00;7.50;;;;;;;;;;4995349;28;93556;-73
2022/03/31 10:37:47;;;;;;;17.67;7.45;;;;;;;;;;4996392;28;96026;-73
2022/03/31 10:40:16;;;;;;;7.68;6.85;;;;;;;;;;4998856;28;95856;-73
2022/03/31 10:42:53;;;;;;;7.30;6.65;;;;;;;;;;4998069;28;93402;-75
2022/03/31 10:45:19;;;;;;;7.47;6.78;;;;;;;;;;4993540;28;92619;-75
2022/03/31 10:47:46;;;;;;;6.90;6.30;;;;;;;;;;4998563;28;93701;-75
2022/03/31 10:50:28;;;;;;;7.10;6.50;;;;;;;;;;4998810;28;93402;-74
2022/03/31 10:53:01;;;;;;;6.80;6.30;;;;;;;;;;4995228;28;93397;-76
2022/03/31 10:55:41;;;;;;;6.88;6.18;;;;;;;;;;4996959;28;93232;-73
2022/03/31 10:58:18;;;;;;;7.80;6.68;;;;;;;;;;4998318;28;92993;-74
2022/03/31 11:00:45;;;;;;;14.55;6.53;;;;;;;;;;5001943;28;92414;-74
2022/03/31 11:03:15;;;;;;;5.63;5.13;;;;;;;;;;4996365;28;96486;-74
2022/03/31 11:05:49;;;;;;;5.78;5.30;;;;;;;;;;4993058;28;92400;-75
2022/03/31 11:08:18;;;;;;;6.53;5.93;;;;;;;;;;4998423;28;92882;-74
2022/03/31 11:10:46;;;;;;;6.22;5.75;;;;;;;;;;4998770;28;93666;-76
2022/03/31 11:13:15;;;;;;;6.13;5.68;;;;;;;;;;5003639;28;92280;-75
2022/03/31 11:15:42;;;;;;;4.97;4.65;;;;;;;;;;5005169;28;92479;-76
2022/03/31 11:18:10;;;;;;;4.97;4.57;;;;;;;;;;5003564;28;93707;-77
2022/03/31 11:20:36;;;;;;;4.80;4.50;;;;;;;;;;5003894;28;91633;-76
2022/03/31 11:23:03;;;;;;;5.28;4.88;;;;;;;;;;5002409;28;94517;-76
2022/03/31 11:25:30;;;;;;;5.25;4.85;;;;;;;;;;4998767;28;92403;-76
2022/03/31 11:28:05;;;;;;;5.70;5.20;;;;;;;;;;5000910;28;94682;-77
2022/03/31 11:30:32;;;;;;;5.00;4.70;;;;;;;;;;4988954;28;94576;-79
2022/03/31 11:32:59;;;;;;;5.13;4.82;;;;;;;;;;4998407;28;92355;-77
2022/03/31 11:35:26;;;;;;;5.28;4.82;;;;;;;;;;4997712;28;93748;-77
2022/03/31 11:37:54;;;;;;;5.03;4.63;;;;;;;;;;4998128;28;95043;-79
2022/03/31 11:40:22;;;;;;;5.82;5.20;;;;;;;;;;4998819;28;92261;-78
2022/03/31 11:42:50;;;;;;;4.80;4.50;;;;;;;;;;4997689;28;93125;-80
2022/03/31 11:45:36;;;;;;;4.72;4.32;;;;;;;;;;5001106;28;92462;-78
2022/03/31 11:48:03;;;;;;;4.45;4.15;;;;;;;;;;4998098;28;92619;-79
2022/03/31 11:50:30;;;;;;;4.85;4.55;;;;;;;;;;4988901;28;92968;-78
2022/03/31 11:53:23;;;;;;;4.25;4.05;;;;;;;;;;4993850;28;94646;-78
2022/03/31 11:55:56;;;;;;;4.40;4.10;;;;;;;;;;4996570;28;95068;-77
2022/03/31 11:58:22;;;;;;;4.72;4.40;;;;;;;;;;4990002;28;97394;-77
2022/03/31 12:00:50;;;;;;;4.88;4.57;;;;;;;;;;4997675;28;92498;-78
2022/03/31 12:03:17;;;;;;;3.85;3.65;;;;;;;;;;4998117;28;92861;-77
2022/03/31 12:06:04;;;;;;;4.60;4.30;;;;;;;;;;4999306;28;94506;-77
2022/03/31 12:08:31;;;;;;;4.25;4.00;;;;;;;;;;4978941;28;96156;-78
2022/03/31 12:10:58;;;;;;;4.50;4.20;;;;;;;;;;4997923;28;92386;-77
2022/03/31 12:13:25;;;;;;;5.20;4.05;;;;;;;;;;4990133;28;92481;-82
2022/03/31 12:16:03;;;;;;;4.43;4.22;;;;;;;;;;4982680;28;97058;-81
2022/03/31 12:18:31;;;;;;;4.38;4.07;;;;;;;;;;4995221;28;96499;-79
2022/03/31 12:20:58;;;;;;;4.45;4.15;;;;;;;;;;4997850;28;92441;-77
2022/03/31 12:23:26;;;;;;;4.20;4.00;;;;;;;;;;4997328;28;92589;-77
2022/03/31 12:25:55;;;;;;;4.90;4.30;;;;;;;;;;4996137;28;94645;-76
2022/03/31 12:28:24;;;;;;;4.03;3.83;;;;;;;;;;4997275;28;92158;-77
2022/03/31 12:30:54;;;;;;;4.45;4.20;;;;;;;;;;4994212;28;93236;-78
2022/03/31 12:33:22;;;;;;;5.82;4.07;;;;;;;;;;4989580;28;92783;-77
2022/03/31 12:36:00;;;;;;;4.35;4.05;;;;;;;;;;4995889;28;93938;-77
2022/03/31 12:38:52;;;;;;;4.20;3.30;;;;;;;;;;4997496;28;94017;-76
2022/03/31 12:41:23;;;;;;;3.47;3.28;;;;;;;;;;4994858;28;92532;-79
2022/03/31 12:44:04;;;;;;;8.57;3.60;;;;;;;;;;4995441;28;94670;-77
2022/03/31 12:46:33;;;;;;;3.47;3.28;;;;;;;;;;4993150;28;94750;-76
2022/03/31 12:49:02;;;;;;;4.32;3.17;;;;;;;;;;4997207;28;93038;-78
2022/03/31 12:51:29;;;;;;;3.65;3.15;;;;;;;;;;4996247;28;94415;-77
2022/03/31 12:53:56;;;;;;;4.68;3.00;;;;;;;;;;4996566;28;92515;-75
2022/03/31 12:56:24;;;;;;;3.67;3.47;;;;;;;;;;4996174;28;93282;-75
2022/03/31 12:58:51;;;;;;;3.17;3.03;;;;;;;;;;4996737;28;93087;-75
2022/03/31 13:01:20;;;;;;;4.15;3.38;;;;;;;;;;4997184;28;92149;-74
2022/03/31 13:03:47;;;;;;;3.00;2.90;;;;;;;;;;4996927;28;93032;-73
2022/03/31 13:06:15;;;;;;;2.67;2.55;;;;;;;;;;4995476;28;92947;-74
2022/03/31 13:08:42;;;;;;;3.00;2.80;;;;;;;;;;4995204;28;94870;-73
2022/03/31 13:11:08;;;;;;;2.70;2.60;;;;;;;;;;4996644;28;96148;-72
2022/03/31 13:13:34;;;;;;;2.33;2.22;;;;;;;;;;4999833;28;93576;-74
2022/03/31 13:16:15;;;;;;;2.00;1.90;;;;;;;;;;4993416;28;93418;-73
2022/03/31 13:18:42;;;;;;;2.05;1.95;;;;;;;;;;4991248;28;93158;-74
2022/03/31 13:21:08;;;;;;;2.50;2.40;;;;;;;;;;4996778;28;92774;-74
2022/03/31 13:23:35;;;;;;;2.30;2.20;;;;;;;;;;4977506;28;94028;-73
2022/03/31 13:26:01;;;;;;;2.20;2.10;;;;;;;;;;4996208;28;92121;-72
2022/03/31 13:28:28;;;;;;;2.20;2.10;;;;;;;;;;4996579;28;92464;-72
2022/03/31 13:30:54;;;;;;;1.98;1.88;;;;;;;;;;4996476;28;92777;-73
2022/03/31 13:33:21;;;;;;;2.03;1.92;;;;;;;;;;4992971;28;96015;-72
2022/03/31 13:35:47;;;;;;;2.83;1.73;;;;;;;;;;4998275;28;92366;-73
2022/03/31 13:38:14;;;;;;;1.85;1.75;;;;;;;;;;4996659;28;93195;-73
2022/03/31 13:40:40;;;;;;;1.90;1.80;;;;;;;;;;4992474;28;92672;-73
2022/03/31 13:43:07;;;;;;;2.10;2.00;;;;;;;;;;4996181;28;93267;-73
2022/03/31 13:45:33;;;;;;;2.00;1.90;;;;;;;;;;4994912;28;92660;-73
2022/03/31 13:47:59;;;;;;;1.75;1.65;;;;;;;;;;4996031;28;92302;-73
2022/03/31 13:50:26;;;;;;;2.40;2.30;;;;;;;;;;4998433;28;93664;-72
2022/03/31 13:55:42;;;;;;;2.42;2.33;;;;;;;;;;4978577;28;93219;-73
2022/03/31 14:01:10;;;;;;;2.40;2.30;;;;;;;;;;4995758;28;92311;-72
2022/03/31 14:03:40;;;;;;;2.30;2.20;;;;;;;;;;4998082;28;95753;-72
2022/03/31 14:06:08;;;;;;;2.35;2.25;;;;;;;;;;4997913;28;94356;-72
2022/03/31 14:08:34;;;;;;;3.55;2.53;;;;;;;;;;4999224;28;92262;-72
2022/03/31 14:11:06;;;;;;;2.53;2.42;;;;;;;;;;4999221;28;93197;-72
2022/03/31 14:13:33;;;;;;;2.65;2.50;;;;;;;;;;4998970;28;95164;-72
2022/03/31 14:16:03;;;;;;;2.30;2.20;;;;;;;;;;4997835;28;91596;-72
2022/03/31 14:18:30;;;;;;;2.40;2.30;;;;;;;;;;4997729;28;92575;-73
2022/03/31 14:20:57;;;;;;;2.67;2.58;;;;;;;;;;4999692;28;92252;-72
2022/03/31 14:23:25;;;;;;;2.47;2.38;;;;;;;;;;4993829;28;95280;-73
2022/03/31 14:25:58;;;;;;;2.60;2.50;;;;;;;;;;4997690;28;93677;-74
2022/03/31 14:28:25;;;;;;;2.40;2.30;;;;;;;;;;4999297;28;92356;-72
2022/03/31 14:30:52;;;;;;;2.67;2.58;;;;;;;;;;4998993;28;93749;-74
2022/03/31 14:33:27;;;;;;;4.60;2.30;;;;;;;;;;4995324;28;93759;-73
2022/03/31 14:35:54;;;;;;;2.60;2.50;;;;;;;;;;4998429;28;92290;-71
2022/03/31 14:38:25;;;;;;;2.30;2.20;;;;;;;;;;4998582;28;94531;-72
2022/03/31 14:40:53;;;;;;;2.53;2.33;;;;;;;;;;5002626;28;92853;-72
2022/03/31 14:43:20;;;;;;;2.40;2.30;;;;;;;;;;4993486;28;93300;-71
2022/03/31 14:45:50;;;;;;;3.00;2.80;;;;;;;;;;4998246;28;93772;-72
2022/03/31 14:48:16;;;;;;;2.95;2.75;;;;;;;;;;4997590;28;95053;-72
2022/03/31 14:50:43;;;;;;;2.80;2.70;;;;;;;;;;4999034;28;95386;-71
2022/03/31 14:53:09;;;;;;;2.65;2.45;;;;;;;;;;4998266;28;93154;-72
2022/03/31 14:55:36;;;;;;;2.83;2.65;;;;;;;;;;4997988;28;92721;-72
2022/03/31 14:58:04;;;;;;;2.90;2.70;;;;;;;;;;4998027;28;93563;-73
2022/03/31 15:00:30;;;;;;;2.95;2.75;;;;;;;;;;4997016;28;93640;-75
2022/03/31 15:02:57;;;;;;;2.65;2.45;;;;;;;;;;5001066;28;93174;-74
2022/03/31 15:05:24;;;;;;;2.88;2.72;;;;;;;;;;4996777;28;95125;-74
2022/03/31 15:07:51;;;;;;;2.67;2.47;;;;;;;;;;4998270;28;92984;-74
2022/03/31 15:15:47;;;;;;;2.25;2.15;;;;;;;;;;4994564;28;92358;-73